Time;durP1;ratioP1;P1;durP2;ratioP2;P2;SDS_P1;SDS_P2;PMS_P1;PMS_P2;Temp;Humidity;BMP_temperature;BMP_pressure;BME280_temperature;BME280_humidity;BME280_pressure;Samples;Min_cycle;Max_cycle;Signal;HPM_P1;HPM_P2
2021/12/20 00:01:27;;;;;;;28.00;4.30;;;6.10;99.90;;;;;;4962199;28;20046;-66
2021/12/20 00:03:53;;;;;;;30.08;4.25;;;6.10;99.90;;;;;;4963299;28;20031;-66
2021/12/20 00:06:19;;;;;;;27.15;4.20;;;6.10;99.90;;;;;;4962739;28;20124;-66
2021/12/20 00:08:45;;;;;;;32.05;3.63;;;6.10;99.90;;;;;;4964358;28;20503;-66
2021/12/20 00:11:10;;;;;;;35.65;4.82;;;6.00;99.90;;;;;;4962079;28;20037;-66
2021/12/20 00:13:36;;;;;;;23.80;3.63;;;6.00;99.90;;;;;;4963805;28;20043;-66
2021/12/20 00:16:02;;;;;;;28.55;4.78;;;6.00;99.90;;;;;;4947115;28;20043;-66
2021/12/20 00:18:28;;;;;;;33.55;4.68;;;5.90;99.90;;;;;;4967242;28;20059;-66
2021/12/20 00:20:53;;;;;;;23.67;5.22;;;5.90;99.90;;;;;;4960880;28;20038;-66
2021/12/20 00:23:19;;;;;;;25.08;4.03;;;5.90;99.90;;;;;;4948437;28;20117;-66
2021/12/20 00:25:48;;;;;;;24.60;4.18;;;5.90;99.90;;;;;;4967084;28;20134;-66
2021/12/20 00:28:18;;;;;;;25.15;4.43;;;6.00;99.90;;;;;;4967307;28;20130;-66
2021/12/20 00:30:44;;;;;;;26.65;4.15;;;5.90;99.90;;;;;;4968904;28;20039;-66
2021/12/20 00:33:09;;;;;;;32.00;4.72;;;5.90;99.90;;;;;;4963804;28;20035;-66
2021/12/20 00:35:35;;;;;;;24.10;5.07;;;5.90;99.90;;;;;;4964313;28;20046;-66
2021/12/20 00:40:47;;;;;;;25.45;4.53;;;5.90;99.90;;;;;;4966336;28;20046;-66
2021/12/20 00:43:13;;;;;;;29.15;4.30;;;5.90;99.90;;;;;;4958543;28;20039;-66
2021/12/20 00:45:38;;;;;;;22.05;4.10;;;5.90;99.90;;;;;;4967808;28;20059;-66
2021/12/20 00:48:05;;;;;;;29.15;5.10;;;5.90;99.90;;;;;;4968225;28;20514;-66
2021/12/20 00:50:32;;;;;;;26.33;4.47;;;5.90;99.90;;;;;;4952033;28;20109;-66
2021/12/20 00:52:58;;;;;;;26.83;4.43;;;5.90;99.90;;;;;;4947733;28;20406;-66
2021/12/20 00:55:25;;;;;;;26.13;4.32;;;5.90;99.90;;;;;;4965579;28;20047;-66
2021/12/20 00:57:53;;;;;;;28.73;5.05;;;5.90;99.90;;;;;;4967596;28;20495;-66
2021/12/20 01:00:27;;;;;;;28.42;3.90;;;5.90;99.90;;;;;;4966232;28;20118;-66
2021/12/20 01:02:53;;;;;;;23.10;4.28;;;5.90;99.90;;;;;;4967381;28;20072;-66
2021/12/20 01:05:21;;;;;;;25.08;4.70;;;5.90;99.90;;;;;;4962576;28;20031;-66
2021/12/20 01:07:46;;;;;;;33.13;4.60;;;5.90;99.90;;;;;;4965394;28;20467;-66
2021/12/20 01:10:12;;;;;;;31.45;4.57;;;5.90;99.90;;;;;;4964696;28;20119;-66
2021/12/20 01:12:50;;;;;;;25.98;4.25;;;5.90;99.90;;;;;;4977347;28;20145;-66
2021/12/20 01:15:28;;;;;;;28.35;4.43;;;5.90;99.90;;;;;;4970803;28;20570;-66
2021/12/20 01:17:53;;;;;;;33.08;3.97;;;5.90;99.90;;;;;;4960722;28;20051;-66
2021/12/20 01:20:20;;;;;;;26.25;4.10;;;5.90;99.90;;;;;;4965641;28;20049;-66
2021/12/20 01:22:47;;;;;;;24.98;3.88;;;5.90;99.90;;;;;;4966156;28;20066;-66
2021/12/20 01:25:15;;;;;;;29.77;4.55;;;5.90;99.90;;;;;;4966416;28;20384;-66
2021/12/20 01:27:41;;;;;;;24.55;4.25;;;5.90;99.90;;;;;;4964215;28;20106;-66
2021/12/20 01:30:09;;;;;;;27.77;4.35;;;5.90;99.90;;;;;;4966027;28;20049;-66
2021/12/20 01:32:34;;;;;;;24.55;4.10;;;5.90;99.90;;;;;;4968393;28;20110;-66
2021/12/20 01:35:00;;;;;;;29.23;4.63;;;5.90;99.90;;;;;;4946894;28;20149;-66
2021/12/20 01:37:26;;;;;;;26.92;3.72;;;5.90;99.90;;;;;;4960650;28;20035;-66
2021/12/20 01:39:53;;;;;;;28.60;4.47;;;5.90;99.90;;;;;;4946177;28;20380;-66
2021/12/20 01:42:22;;;;;;;29.48;4.30;;;5.90;99.90;;;;;;4960437;28;20047;-66
2021/12/20 01:44:49;;;;;;;22.77;3.72;;;5.90;99.90;;;;;;4942589;28;20054;-66
2021/12/20 01:47:16;;;;;;;25.95;4.53;;;5.90;99.90;;;;;;4959885;28;20376;-66
2021/12/20 01:49:56;;;;;;;28.75;4.38;;;5.90;99.90;;;;;;4964604;28;20134;-66
2021/12/20 01:52:25;;;;;;;31.58;4.35;;;5.90;99.90;;;;;;4959532;28;20553;-65
2021/12/20 01:54:50;;;;;;;21.90;3.67;;;5.80;99.90;;;;;;4961398;28;20038;-65
2021/12/20 01:57:16;;;;;;;27.02;4.10;;;5.80;99.90;;;;;;4947009;28;20101;-65
2021/12/20 01:59:42;;;;;;;21.80;3.60;;;5.80;99.90;;;;;;4965867;28;20439;-66
2021/12/20 02:02:08;;;;;;;24.23;3.85;;;5.80;99.90;;;;;;4962168;28;20036;-66
2021/12/20 02:04:44;;;;;;;22.55;3.35;;;5.80;99.90;;;;;;4961782;28;20407;-66
2021/12/20 02:07:29;;;;;;;24.15;3.95;;;5.80;99.90;;;;;;4963731;28;20039;-66
2021/12/20 02:09:55;;;;;;;26.92;3.88;;;5.80;99.90;;;;;;4966571;28;20040;-66
2021/12/20 02:12:21;;;;;;;29.27;4.00;;;5.70;99.90;;;;;;4958388;28;20058;-66
2021/12/20 02:14:47;;;;;;;25.30;3.78;;;5.80;99.90;;;;;;4964454;28;20114;-66
2021/12/20 02:17:14;;;;;;;19.00;3.20;;;5.70;99.90;;;;;;4949998;28;20039;-66
2021/12/20 02:19:40;;;;;;;18.25;2.75;;;5.70;99.90;;;;;;4961570;28;20043;-66
2021/12/20 02:22:06;;;;;;;20.05;3.13;;;5.80;99.90;;;;;;4943661;28;20047;-66
2021/12/20 02:24:31;;;;;;;19.02;2.75;;;5.80;99.90;;;;;;4962242;28;20041;-66
2021/12/20 02:26:57;;;;;;;21.17;3.35;;;5.80;99.90;;;;;;4948185;28;20118;-66
2021/12/20 02:29:39;;;;;;;20.50;3.38;;;5.90;99.90;;;;;;4963006;28;20145;-66
2021/12/20 02:37:33;;;;;;;21.67;3.30;;;5.80;99.90;;;;;;4964406;28;20130;-66
2021/12/20 02:39:59;;;;;;;25.73;3.33;;;5.80;99.90;;;;;;4965876;28;20518;-66
2021/12/20 02:42:31;;;;;;;16.30;2.55;;;5.80;99.90;;;;;;4965038;28;20260;-66
2021/12/20 02:45:11;;;;;;;22.77;3.95;;;5.80;99.90;;;;;;4964337;28;20567;-66
2021/12/20 02:47:39;;;;;;;18.90;2.88;;;5.80;99.90;;;;;;4965958;28;20089;-66
2021/12/20 02:50:05;;;;;;;24.52;3.42;;;5.80;99.90;;;;;;4967791;28;20046;-66
2021/12/20 02:52:31;;;;;;;19.73;3.17;;;5.80;99.90;;;;;;4964212;28;20375;-66
2021/12/20 02:54:57;;;;;;;17.75;3.53;;;5.80;99.90;;;;;;4958764;28;20035;-66
2021/12/20 02:57:22;;;;;;;16.88;2.72;;;5.80;99.90;;;;;;4944138;28;20458;-66
2021/12/20 02:59:48;;;;;;;18.52;2.40;;;5.80;99.90;;;;;;4966320;28;20035;-66
2021/12/20 03:02:14;;;;;;;21.30;2.60;;;5.80;99.90;;;;;;4961015;28;20027;-66
2021/12/20 03:04:40;;;;;;;18.33;2.88;;;5.70;99.90;;;;;;4944893;28;20053;-66
2021/12/20 03:07:10;;;;;;;23.00;4.75;;;5.70;99.90;;;;;;4961910;28;20050;-66
2021/12/20 03:09:41;;;;;;;18.75;3.42;;;5.80;99.90;;;;;;4964924;28;20522;-66
2021/12/20 03:12:09;;;;;;;19.45;2.85;;;5.70;99.90;;;;;;4956251;28;20124;-66
2021/12/20 03:14:42;;;;;;;19.27;2.42;;;5.70;99.90;;;;;;4966128;28;20130;-66
2021/12/20 03:17:09;;;;;;;13.45;2.42;;;5.80;99.90;;;;;;4962349;28;20047;-66
2021/12/20 03:19:35;;;;;;;20.17;2.35;;;5.70;99.90;;;;;;4962653;28;20057;-66
2021/12/20 03:22:02;;;;;;;19.33;2.40;;;5.70;99.90;;;;;;4963487;28;20031;-66
2021/12/20 03:24:28;;;;;;;18.23;2.17;;;5.70;99.90;;;;;;4948764;28;20045;-66
2021/12/20 03:26:54;;;;;;;20.02;2.83;;;5.70;99.90;;;;;;4941469;28;20050;-66
2021/12/20 03:29:20;;;;;;;15.00;2.58;;;5.70;99.90;;;;;;4959651;28;20655;-66
2021/12/20 03:31:46;;;;;;;20.00;2.80;;;5.70;99.90;;;;;;4960401;28;20043;-66
2021/12/20 03:34:13;;;;;;;18.05;3.03;;;5.70;99.90;;;;;;4944337;28;20039;-67
2021/12/20 03:36:39;;;;;;;19.52;2.47;;;5.60;99.90;;;;;;4963145;28;20053;-67
2021/12/20 03:39:07;;;;;;;18.08;2.63;;;5.70;99.90;;;;;;4941096;28;20031;-67
2021/12/20 03:41:33;;;;;;;19.90;2.95;;;5.60;99.90;;;;;;4963558;28;20043;-67
2021/12/20 03:43:59;;;;;;;15.27;2.17;;;5.60;99.90;;;;;;4967053;28;20047;-67
2021/12/20 03:46:25;;;;;;;17.15;2.53;;;5.50;99.90;;;;;;4949849;28;20061;-67
2021/12/20 03:48:50;;;;;;;15.85;2.90;;;5.50;99.90;;;;;;4957111;28;20050;-67
2021/12/20 03:51:16;;;;;;;13.93;2.28;;;5.50;99.90;;;;;;4959544;28;20428;-66
2021/12/20 03:53:42;;;;;;;11.85;2.13;;;5.40;99.90;;;;;;4968896;28;20034;-66
2021/12/20 03:56:08;;;;;;;13.38;1.90;;;5.40;99.90;;;;;;4964422;28;20069;-67
2021/12/20 03:58:34;;;;;;;16.70;2.67;;;5.40;99.90;;;;;;4960501;28;20117;-67
2021/12/20 04:01:10;;;;;;;16.23;2.38;;;5.30;99.90;;;;;;4966659;28;20049;-67
2021/12/20 04:03:36;;;;;;;12.90;1.80;;;5.30;99.90;;;;;;4961340;28;20049;-67
2021/12/20 04:06:09;;;;;;;11.60;2.40;;;5.30;99.90;;;;;;4962859;28;20039;-67
2021/12/20 04:08:35;;;;;;;12.40;2.25;;;5.30;99.90;;;;;;4968552;28;20089;-66
2021/12/20 04:11:03;;;;;;;13.75;2.05;;;5.10;99.90;;;;;;4964869;28;20038;-66
2021/12/20 04:13:29;;;;;;;14.77;2.53;;;5.20;99.90;;;;;;4963303;28;20488;-66
2021/12/20 04:15:55;;;;;;;19.55;2.67;;;5.20;99.90;;;;;;4965694;28;20049;-66
2021/12/20 04:18:25;;;;;;;16.23;2.50;;;5.10;99.90;;;;;;4951134;28;20114;-66
2021/12/20 04:20:51;;;;;;;14.30;2.50;;;5.00;99.90;;;;;;4945232;28;20125;-66
2021/12/20 04:23:17;;;;;;;15.43;1.83;;;5.10;99.90;;;;;;4964954;28;20038;-66
2021/12/20 04:25:43;;;;;;;12.90;2.00;;;5.10;99.90;;;;;;4946131;28;20053;-66
2021/12/20 04:28:09;;;;;;;15.30;2.00;;;5.00;99.90;;;;;;4964563;28;20048;-67
2021/12/20 04:30:34;;;;;;;12.27;2.15;;;5.00;99.90;;;;;;4967435;28;20038;-66
2021/12/20 04:33:00;;;;;;;10.02;1.60;;;5.00;99.90;;;;;;4962781;28;20360;-66
2021/12/20 04:35:26;;;;;;;13.25;2.03;;;4.90;99.90;;;;;;4968309;28;20035;-66
2021/12/20 04:37:53;;;;;;;16.45;2.85;;;4.80;99.90;;;;;;4960106;28;20600;-66
2021/12/20 04:40:21;;;;;;;12.65;1.98;;;4.90;99.90;;;;;;4966293;28;20054;-67
2021/12/20 04:42:50;;;;;;;12.73;1.70;;;4.90;99.90;;;;;;4958809;28;20035;-67
2021/12/20 04:45:16;;;;;;;13.82;2.00;;;4.80;99.90;;;;;;4967202;28;20038;-66
2021/12/20 04:47:41;;;;;;;14.15;2.00;;;4.80;99.90;;;;;;4962905;28;20043;-66
2021/12/20 04:50:08;;;;;;;12.95;1.90;;;4.70;99.90;;;;;;4960245;28;20440;-67
2021/12/20 04:52:35;;;;;;;15.65;1.77;;;4.70;99.90;;;;;;4957126;28;20572;-66
2021/12/20 04:55:01;;;;;;;14.07;2.70;;;4.60;99.90;;;;;;4962223;28;20359;-66
2021/12/20 04:57:27;;;;;;;11.68;2.10;;;4.60;99.90;;;;;;4960734;28;20039;-67
2021/12/20 04:59:53;;;;;;;10.10;1.80;;;4.60;99.90;;;;;;4960749;28;20419;-67
2021/12/20 05:02:18;;;;;;;11.27;1.73;;;4.50;99.90;;;;;;4960318;28;20118;-67
2021/12/20 05:04:44;;;;;;;11.85;1.70;;;4.50;99.90;;;;;;4963458;28;20047;-67
2021/12/20 05:07:10;;;;;;;7.80;1.70;;;4.50;99.90;;;;;;4967464;28;20720;-66
2021/12/20 05:09:39;;;;;;;11.00;2.22;;;4.40;99.90;;;;;;4965346;28;20050;-66
2021/12/20 05:12:14;;;;;;;11.63;1.60;;;4.40;99.90;;;;;;4966299;28;20039;-66
2021/12/20 05:14:42;;;;;;;12.07;1.63;;;4.40;99.90;;;;;;4970613;28;20053;-66
2021/12/20 05:17:11;;;;;;;9.10;1.73;;;4.40;99.90;;;;;;4965370;28;20502;-66
2021/12/20 05:19:38;;;;;;;11.73;1.75;;;4.30;99.90;;;;;;4951321;28;20046;-67
2021/12/20 05:22:05;;;;;;;15.38;2.20;;;4.30;99.90;;;;;;4966379;28;20046;-67
2021/12/20 05:24:31;;;;;;;9.95;1.88;;;4.20;99.90;;;;;;4962167;28;20034;-66
2021/12/20 05:26:57;;;;;;;12.13;1.98;;;4.20;99.90;;;;;;4962924;28;20031;-66
2021/12/20 05:29:24;;;;;;;12.45;1.98;;;4.10;99.90;;;;;;4968270;28;20050;-67
2021/12/20 05:31:50;;;;;;;549.47;424.05;;;4.10;99.90;;;;;;4965044;28;20047;-66
2021/12/20 05:34:16;;;;;;;92.70;63.90;;;4.00;99.90;;;;;;4965067;28;20031;-66
2021/12/20 05:36:42;;;;;;;49.40;28.25;;;4.00;99.90;;;;;;4961266;28;20047;-66
2021/12/20 05:39:08;;;;;;;15.95;4.32;;;3.90;99.90;;;;;;4960500;28;20407;-66
2021/12/20 05:41:33;;;;;;;22.17;9.77;;;3.80;99.90;;;;;;4961186;28;20035;-66
2021/12/20 05:43:59;;;;;;;15.45;5.95;;;3.70;99.90;;;;;;4960790;28;20038;-67
2021/12/20 05:46:25;;;;;;;13.65;4.43;;;3.60;99.90;;;;;;4946955;29;20070;-67
2021/12/20 05:48:50;;;;;;;13.73;2.97;;;3.60;99.90;;;;;;4947355;28;20046;-67
2021/12/20 05:51:16;;;;;;;12.75;1.90;;;3.50;99.90;;;;;;4949495;28;20057;-67
2021/12/20 05:53:42;;;;;;;13.48;1.95;;;3.40;99.90;;;;;;4968092;28;20500;-67
2021/12/20 05:56:08;;;;;;;8.05;1.23;;;3.40;99.90;;;;;;4961742;28;20039;-67
2021/12/20 05:58:33;;;;;;;15.25;1.63;;;3.30;99.90;;;;;;4963090;28;20224;-67
2021/12/20 06:00:59;;;;;;;11.70;2.10;;;3.20;99.90;;;;;;4952279;28;20074;-67
2021/12/20 06:03:25;;;;;;;12.15;1.45;;;3.10;99.90;;;;;;4968709;28;20472;-67
2021/12/20 06:05:50;;;;;;;11.98;1.35;;;3.10;99.90;;;;;;4961030;28;20035;-67
2021/12/20 06:08:16;;;;;;;10.27;1.65;;;3.00;99.90;;;;;;4966508;28;20034;-66
2021/12/20 06:10:42;;;;;;;9.02;1.70;;;3.00;99.90;;;;;;4961413;28;20483;-66
2021/12/20 06:13:07;;;;;;;9.23;2.03;;;2.90;99.90;;;;;;4960288;28;20042;-66
2021/12/20 06:15:33;;;;;;;16.10;2.33;;;2.80;99.90;;;;;;4964642;28;20045;-66
2021/12/20 06:18:00;;;;;;;10.55;2.08;;;2.80;99.90;;;;;;4962474;28;20070;-66
2021/12/20 06:20:26;;;;;;;12.50;2.20;;;2.70;99.90;;;;;;4967080;28;20043;-66
2021/12/20 06:22:52;;;;;;;10.23;1.48;;;2.70;99.90;;;;;;4961046;28;20073;-66
2021/12/20 06:25:18;;;;;;;7.32;1.65;;;2.60;99.90;;;;;;4962428;28;20122;-66
2021/12/20 06:27:47;;;;;;;13.30;1.85;;;2.60;99.90;;;;;;4946286;28;20221;-66
2021/12/20 06:30:14;;;;;;;10.38;1.60;;;2.50;99.90;;;;;;4947484;28;20074;-66
2021/12/20 06:32:42;;;;;;;11.32;1.83;;;2.50;99.90;;;;;;4963947;28;20119;-66
2021/12/20 06:35:09;;;;;;;10.18;1.60;;;2.40;99.90;;;;;;4963781;28;20038;-67
2021/12/20 06:37:35;;;;;;;10.80;1.70;;;2.40;99.90;;;;;;4964194;28;20030;-67
2021/12/20 06:40:01;;;;;;;9.55;1.83;;;2.30;99.90;;;;;;4962006;28;20027;-66
2021/12/20 06:42:27;;;;;;;13.90;2.22;;;2.30;99.90;;;;;;4943254;28;20059;-66
2021/12/20 06:44:53;;;;;;;12.40;1.65;;;2.30;99.90;;;;;;4959769;28;20054;-66
2021/12/20 06:47:20;;;;;;;13.63;2.10;;;2.20;99.90;;;;;;4960998;28;20058;-66
2021/12/20 06:49:46;;;;;;;7.50;1.80;;;2.20;99.90;;;;;;4961916;28;20078;-67
2021/12/20 06:52:12;;;;;;;12.98;2.78;;;2.10;99.90;;;;;;4962662;28;20047;-67
2021/12/20 06:54:38;;;;;;;12.32;2.20;;;2.10;99.90;;;;;;4962501;28;20046;-67
2021/12/20 06:57:04;;;;;;;16.58;3.13;;;2.00;99.90;;;;;;4959829;28;20511;-67
2021/12/20 06:59:31;;;;;;;15.25;2.42;;;2.00;99.90;;;;;;4964900;28;20379;-67
2021/12/20 07:01:56;;;;;;;15.27;2.40;;;2.10;99.90;;;;;;4968335;28;20088;-67
2021/12/20 07:04:22;;;;;;;13.57;2.83;;;2.00;99.90;;;;;;4966808;28;20039;-67
2021/12/20 07:06:48;;;;;;;24.23;2.55;;;2.00;99.90;;;;;;4964172;28;20081;-67
2021/12/20 07:09:14;;;;;;;18.20;3.00;;;2.00;99.90;;;;;;4983187;28;20050;-66
2021/12/20 07:11:41;;;;;;;14.23;2.20;;;1.90;99.90;;;;;;4947764;28;20039;-66
2021/12/20 07:14:08;;;;;;;13.75;2.08;;;1.90;99.90;;;;;;4965226;28;20439;-66
2021/12/20 07:16:35;;;;;;;17.90;2.38;;;1.80;99.90;;;;;;4964180;28;20039;-66
2021/12/20 07:19:02;;;;;;;11.30;2.30;;;1.80;99.90;;;;;;4961745;28;20451;-66
2021/12/20 07:21:28;;;;;;;17.67;2.67;;;1.70;99.90;;;;;;4947418;28;20038;-66
2021/12/20 07:23:53;;;;;;;17.30;2.13;;;1.70;99.90;;;;;;4957159;28;20447;-66
2021/12/20 07:26:20;;;;;;;16.83;2.35;;;1.70;99.90;;;;;;4939781;28;20039;-66
2021/12/20 07:28:45;;;;;;;9.60;2.20;;;1.60;99.90;;;;;;4942271;28;20416;-66
2021/12/20 07:31:13;;;;;;;12.60;2.58;;;1.60;99.90;;;;;;4963628;28;20046;-66
2021/12/20 07:33:39;;;;;;;18.88;3.10;;;1.50;99.90;;;;;;4963130;28;20063;-66
2021/12/20 07:36:05;;;;;;;13.75;2.35;;;1.50;99.90;;;;;;4956051;28;20034;-66
2021/12/20 07:38:31;;;;;;;14.55;2.47;;;1.50;99.90;;;;;;4940063;28;20059;-66
2021/12/20 07:40:57;;;;;;;10.57;2.10;;;1.40;99.90;;;;;;4959765;28;20069;-66
2021/12/20 07:43:23;;;;;;;12.65;2.47;;;1.50;99.90;;;;;;4944256;28;20047;-66
2021/12/20 07:45:50;;;;;;;12.35;2.53;;;1.40;99.90;;;;;;4964114;28;20046;-66
2021/12/20 07:48:17;;;;;;;11.77;2.55;;;1.50;99.90;;;;;;4962547;28;20035;-66
2021/12/20 07:50:44;;;;;;;13.73;2.80;;;1.40;99.90;;;;;;4947065;28;20049;-66
2021/12/20 07:53:10;;;;;;;12.60;2.08;;;1.40;99.90;;;;;;4963087;28;20046;-66
2021/12/20 07:55:36;;;;;;;13.98;2.80;;;1.40;99.90;;;;;;4962110;28;20051;-67
2021/12/20 07:58:01;;;;;;;15.55;2.40;;;1.40;99.90;;;;;;4947193;28;20106;-67
2021/12/20 08:00:27;;;;;;;17.42;2.95;;;1.40;99.90;;;;;;4943250;28;20074;-66
2021/12/20 08:02:56;;;;;;;18.75;3.80;;;1.40;99.90;;;;;;4944627;28;20050;-66
2021/12/20 08:05:21;;;;;;;10.77;2.83;;;1.40;99.90;;;;;;4961889;28;20079;-66
2021/12/20 08:07:50;;;;;;;13.48;2.95;;;1.40;99.90;;;;;;4963731;28;20620;-66
2021/12/20 08:10:18;;;;;;;15.35;4.00;;;1.40;99.90;;;;;;4948289;28;20522;-66
2021/12/20 08:12:45;;;;;;;16.23;5.18;;;1.40;99.90;;;;;;4963748;28;20118;-66
2021/12/20 08:15:11;;;;;;;15.43;4.20;;;1.40;99.90;;;;;;4946880;28;20440;-66
2021/12/20 08:17:37;;;;;;;12.63;3.75;;;1.50;99.90;;;;;;4960308;28;20059;-66
2021/12/20 08:20:04;;;;;;;18.77;4.95;;;1.40;99.90;;;;;;4949956;28;20133;-66
2021/12/20 08:22:30;;;;;;;22.15;6.93;;;1.50;99.90;;;;;;4944893;28;20492;-66
2021/12/20 08:24:56;;;;;;;15.38;5.82;;;1.50;99.90;;;;;;4965171;28;20105;-66
2021/12/20 08:27:21;;;;;;;18.10;5.38;;;1.40;99.90;;;;;;4948191;28;20061;-66
2021/12/20 08:29:47;;;;;;;15.82;4.75;;;1.50;99.90;;;;;;4961613;28;20403;-66
2021/12/20 08:32:13;;;;;;;17.13;4.22;;;1.50;99.90;;;;;;4956400;28;20058;-66
2021/12/20 08:34:39;;;;;;;15.20;4.40;;;1.60;99.90;;;;;;4963178;28;20122;-67
2021/12/20 08:37:04;;;;;;;15.75;4.00;;;1.60;99.90;;;;;;4948102;28;20531;-67
2021/12/20 08:39:31;;;;;;;13.20;4.03;;;1.60;99.90;;;;;;4966970;28;20043;-67
2021/12/20 08:41:58;;;;;;;12.90;3.45;;;1.70;99.90;;;;;;4948995;28;20043;-66
2021/12/20 08:44:25;;;;;;;13.15;4.30;;;1.60;99.90;;;;;;4949181;28;20046;-66
2021/12/20 08:46:51;;;;;;;13.77;4.05;;;1.70;99.90;;;;;;4951045;28;20333;-66
2021/12/20 08:49:17;;;;;;;18.05;4.28;;;1.70;99.90;;;;;;4965367;28;20464;-67
2021/12/20 08:51:45;;;;;;;17.75;4.65;;;1.70;99.90;;;;;;4964174;28;20137;-67
2021/12/20 08:54:12;;;;;;;35.00;4.88;;;1.80;99.90;;;;;;4945504;28;20106;-66
2021/12/20 08:56:37;;;;;;;29.60;4.78;;;1.80;99.90;;;;;;4964650;28;20045;-66
2021/12/20 08:59:03;;;;;;;22.20;4.78;;;1.90;99.90;;;;;;4948779;28;20490;-66
2021/12/20 09:01:30;;;;;;;25.27;4.18;;;1.90;99.90;;;;;;4951060;28;20047;-66
2021/12/20 09:03:57;;;;;;;21.48;4.05;;;2.00;99.90;;;;;;4964503;28;20055;-66
2021/12/20 09:06:25;;;;;;;18.25;4.22;;;1.90;99.90;;;;;;4948043;28;20497;-66
2021/12/20 09:08:53;;;;;;;17.92;4.18;;;2.00;99.90;;;;;;4944364;28;20043;-67
2021/12/20 09:11:20;;;;;;;22.80;4.78;;;2.00;99.90;;;;;;4962491;28;20527;-67
2021/12/20 09:13:45;;;;;;;19.05;4.85;;;2.10;99.90;;;;;;4934875;28;20062;-67
2021/12/20 09:16:11;;;;;;;18.70;4.18;;;2.20;99.90;;;;;;4968682;28;20495;-67
2021/12/20 09:18:37;;;;;;;18.63;2.95;;;2.20;99.90;;;;;;4961773;28;20039;-67
2021/12/20 09:21:03;;;;;;;13.80;3.40;;;2.20;99.90;;;;;;4962527;28;20473;-67
2021/12/20 09:23:31;;;;;;;26.13;4.20;;;2.30;99.90;;;;;;4966902;28;20165;-67
2021/12/20 09:25:57;;;;;;;36.22;3.95;;;2.30;99.90;;;;;;4964005;28;20573;-67
2021/12/20 09:28:23;;;;;;;21.50;3.75;;;2.40;99.90;;;;;;4958254;28;20163;-67
2021/12/20 09:30:49;;;;;;;15.80;3.30;;;2.40;99.90;;;;;;4944679;28;20058;-67
2021/12/20 09:33:15;;;;;;;13.13;3.30;;;2.40;99.90;;;;;;4951120;28;20066;-67
2021/12/20 09:35:41;;;;;;;26.52;4.28;;;2.40;99.90;;;;;;4963304;28;20826;-67
2021/12/20 09:38:11;;;;;;;19.92;3.60;;;2.50;99.90;;;;;;4968526;28;20074;-67
2021/12/20 09:40:40;;;;;;;19.38;3.63;;;2.50;99.90;;;;;;4969454;28;20043;-67
2021/12/20 09:43:12;;;;;;;26.23;4.05;;;2.60;99.90;;;;;;4947973;28;20062;-67
2021/12/20 09:45:42;;;;;;;15.75;3.75;;;2.60;99.90;;;;;;4958566;28;20055;-67
2021/12/20 09:48:08;;;;;;;24.30;4.10;;;2.60;99.90;;;;;;4964443;28;20125;-67
2021/12/20 09:50:34;;;;;;;33.58;10.98;;;2.60;99.90;;;;;;4964217;28;20027;-67
2021/12/20 09:53:04;;;;;;;34.85;12.07;;;2.70;99.90;;;;;;4965880;28;20043;-67
2021/12/20 09:55:31;;;;;;;35.08;12.18;;;2.70;99.90;;;;;;4961341;28;20422;-67
2021/12/20 09:58:00;;;;;;;28.55;9.57;;;2.80;99.90;;;;;;4962901;28;20066;-67
2021/12/20 10:00:26;;;;;;;28.88;5.30;;;2.80;99.90;;;;;;4963275;28;20046;-67
2021/12/20 10:02:52;;;;;;;26.42;7.28;;;2.80;99.90;;;;;;4942843;28;20125;-67
2021/12/20 10:05:19;;;;;;;30.42;5.22;;;2.90;99.90;;;;;;4959037;28;20130;-67
2021/12/20 10:07:50;;;;;;;19.77;5.35;;;2.80;99.90;;;;;;4964609;28;20122;-67
2021/12/20 10:10:38;;;;;;;20.70;5.22;;;2.90;99.90;;;;;;4961133;28;20074;-67
2021/12/20 10:13:04;;;;;;;19.55;4.47;;;2.90;99.90;;;;;;4969295;28;23448;-67
2021/12/20 10:15:35;;;;;;;21.67;4.60;;;2.90;99.90;;;;;;4969936;28;20035;-67
2021/12/20 10:18:01;;;;;;;20.02;4.32;;;3.00;99.90;;;;;;4961968;28;20177;-67
2021/12/20 10:20:29;;;;;;;23.05;4.65;;;3.00;99.90;;;;;;4966342;28;20408;-67
2021/12/20 10:23:19;;;;;;;28.98;4.30;;;3.00;99.90;;;;;;4966354;28;20038;-67
2021/12/20 10:25:48;;;;;;;28.67;4.28;;;3.10;99.90;;;;;;4962657;28;20194;-67
2021/12/20 10:28:16;;;;;;;20.50;2.97;;;3.10;99.90;;;;;;4961459;28;20376;-67
2021/12/20 10:30:56;;;;;;;25.63;3.47;;;3.20;99.90;;;;;;4961138;28;20047;-67
2021/12/20 10:33:23;;;;;;;29.42;3.72;;;3.30;99.90;;;;;;4929815;28;20179;-67
2021/12/20 10:35:52;;;;;;;26.98;3.55;;;3.40;99.90;;;;;;4964749;28;20051;-67
2021/12/20 10:38:18;;;;;;;25.52;4.32;;;3.40;99.90;;;;;;4959309;28;20046;-67
2021/12/20 10:40:57;;;;;;;21.25;3.58;;;3.50;99.90;;;;;;4965104;28;20043;-67
2021/12/20 10:43:36;;;;;;;20.83;3.38;;;3.50;99.90;;;;;;4945851;28;20054;-67
2021/12/20 10:46:19;;;;;;;26.33;4.53;;;3.60;99.90;;;;;;4945724;28;20055;-67
2021/12/20 10:48:48;;;;;;;19.58;3.63;;;3.70;99.90;;;;;;4962717;28;20070;-67
2021/12/20 10:51:24;;;;;;;15.63;3.15;;;3.70;99.90;;;;;;4965647;28;20045;-66
2021/12/20 10:53:58;;;;;;;18.83;3.10;;;3.70;99.90;;;;;;4943573;28;20511;-66
2021/12/20 10:56:24;;;;;;;17.60;3.42;;;3.70;99.90;;;;;;4960813;28;20047;-66
2021/12/20 10:58:50;;;;;;;16.48;2.83;;;3.70;99.90;;;;;;4964055;28;20039;-66
2021/12/20 11:04:12;;;;;;;15.18;2.83;;;3.80;99.90;;;;;;4958733;28;20047;-66
2021/12/20 11:09:15;;;;;;;20.38;2.95;;;3.90;99.90;;;;;;4948474;28;20081;-66
2021/12/20 11:11:54;;;;;;;15.20;2.53;;;3.90;99.90;;;;;;4949058;28;20066;-66
2021/12/20 11:14:23;;;;;;;16.38;2.72;;;4.00;99.90;;;;;;4958955;28;20055;-66
2021/12/20 11:16:52;;;;;;;14.50;3.15;;;4.00;99.90;;;;;;4965518;28;20043;-66
2021/12/20 11:19:41;;;;;;;14.82;3.20;;;4.00;99.90;;;;;;4960534;28;20047;-66
2021/12/20 11:22:11;;;;;;;13.77;2.00;;;4.00;99.90;;;;;;4966699;28;20043;-66
2021/12/20 11:24:37;;;;;;;10.07;2.22;;;4.00;99.90;;;;;;4964258;28;20062;-66
2021/12/20 11:27:05;;;;;;;9.38;1.75;;;4.00;99.90;;;;;;4948142;28;20305;-66
2021/12/20 11:29:31;;;;;;;11.68;1.45;;;4.00;99.90;;;;;;4945203;28;20078;-67
2021/12/20 11:31:58;;;;;;;8.60;1.30;;;4.00;99.90;;;;;;4972886;28;20419;-66
2021/12/20 11:34:24;;;;;;;8.02;1.60;;;4.10;99.90;;;;;;4968815;28;20085;-66
2021/12/20 11:36:51;;;;;;;11.57;1.67;;;4.10;99.90;;;;;;4959567;28;20042;-66
2021/12/20 11:39:17;;;;;;;6.80;1.13;;;4.10;99.90;;;;;;4969389;28;20046;-66
2021/12/20 11:41:43;;;;;;;10.82;1.77;;;4.10;99.90;;;;;;4963298;28;20039;-67
2021/12/20 11:44:16;;;;;;;6.95;1.55;;;4.10;99.90;;;;;;4961681;28;20053;-67
2021/12/20 11:46:58;;;;;;;10.68;1.75;;;4.10;99.90;;;;;;4958455;28;20046;-67
2021/12/20 11:49:24;;;;;;;9.02;1.75;;;4.10;99.90;;;;;;4963551;28;20113;-67
2021/12/20 11:52:12;;;;;;;8.27;1.65;;;4.10;99.90;;;;;;4959295;28;20038;-67
2021/12/20 11:54:53;;;;;;;8.57;1.77;;;4.10;99.90;;;;;;4963218;28;20114;-67
2021/12/20 11:57:28;;;;;;;11.07;1.80;;;4.10;99.90;;;;;;4945506;28;20455;-67
2021/12/20 11:59:55;;;;;;;;;;;4.20;99.90;;;;;;4958494;28;20046;-67
2021/12/20 12:02:26;;;;;;;6.85;1.30;;;4.20;99.90;;;;;;4948215;28;19918;-67
2021/12/20 12:05:17;;;;;;;12.25;1.83;;;4.20;99.90;;;;;;4964812;28;20117;-67
2021/12/20 12:07:44;;;;;;;7.63;1.83;;;4.30;99.90;;;;;;4960175;28;20097;-67
2021/12/20 12:10:14;;;;;;;11.65;2.20;;;4.40;99.90;;;;;;4962458;28;20046;-67
2021/12/20 12:12:43;;;;;;;7.68;1.73;;;4.40;99.90;;;;;;4962008;28;20381;-67
2021/12/20 12:15:32;;;;;;;6.80;1.10;;;4.50;99.90;;;;;;4960941;28;20368;-67
2021/12/20 12:18:03;;;;;;;11.55;1.60;;;4.60;99.90;;;;;;4947175;28;20517;-67
2021/12/20 12:20:55;;;;;;;5.80;1.10;;;4.70;99.90;;;;;;4957719;28;20126;-67
2021/12/20 12:23:27;;;;;;;5.88;0.82;;;4.70;99.90;;;;;;4961755;28;20049;-67
2021/12/20 12:25:56;;;;;;;5.90;0.90;;;4.70;99.90;;;;;;4968582;28;20073;-67
2021/12/20 12:28:25;;;;;;;6.63;1.52;;;4.70;99.90;;;;;;4961820;28;20534;-67
2021/12/20 12:31:00;;;;;;;9.00;1.30;;;4.80;99.90;;;;;;4969608;28;20043;-67
2021/12/20 12:33:28;;;;;;;7.13;1.60;;;4.90;99.90;;;;;;4970829;28;20046;-67
2021/12/20 12:35:57;;;;;;;8.40;1.33;;;4.80;99.90;;;;;;4968946;28;20075;-68
2021/12/20 12:38:26;;;;;;;5.47;0.98;;;4.80;99.90;;;;;;4948352;28;20549;-68
2021/12/20 12:41:15;;;;;;;5.55;1.00;;;4.90;99.90;;;;;;4949587;28;20066;-68
2021/12/20 12:44:06;;;;;;;4.80;0.80;;;4.80;99.90;;;;;;4968451;28;20451;-68
2021/12/20 12:46:43;;;;;;;3.05;0.57;;;4.80;99.90;;;;;;4962786;28;20047;-68
2021/12/20 12:49:21;;;;;;;4.20;0.60;;;4.80;99.90;;;;;;4966132;28;20109;-69
2021/12/20 12:51:55;;;;;;;12.10;1.73;;;4.70;99.90;;;;;;4971691;28;20043;-68
2021/12/20 12:54:33;;;;;;;4.67;0.50;;;4.70;99.90;;;;;;4968465;28;20049;-69
2021/12/20 12:57:10;;;;;;;5.93;0.80;;;4.80;99.90;;;;;;4965987;28;20333;-68
2021/12/20 12:59:58;;;;;;;6.10;0.82;;;4.80;99.90;;;;;;4966344;28;20046;-67
2021/12/20 13:02:30;;;;;;;3.80;0.93;;;4.70;99.90;;;;;;4931988;28;20496;-67
2021/12/20 13:05:00;;;;;;;6.75;1.88;;;4.70;99.90;;;;;;4971119;28;20458;-67
2021/12/20 13:07:32;;;;;;;5.13;1.75;;;4.70;99.90;;;;;;4953336;28;20051;-67